Time;durP1;ratioP1;P1;durP2;ratioP2;P2;SDS_P1;SDS_P2;PMS_P1;PMS_P2;Temp;Humidity;BMP_temperature;BMP_pressure;BME280_temperature;BME280_humidity;BME280_pressure;Samples;Min_cycle;Max_cycle;Signal;HPM_P1;HPM_P2
2022/10/24 00:02:21;;;;;;;4.63;2.10;;;15.80;99.90;;;;;;5075361;28;20461;-80
2022/10/24 00:04:48;;;;;;;5.60;2.67;;;15.80;99.90;;;;;;5074734;28;20456;-81
2022/10/24 00:07:15;;;;;;;8.23;2.53;;;15.70;99.90;;;;;;5072910;28;20472;-82
2022/10/24 00:09:42;;;;;;;3.13;2.20;;;15.70;99.90;;;;;;5053530;28;20505;-81
2022/10/24 00:12:09;;;;;;;4.93;2.60;;;15.80;99.90;;;;;;5055867;28;20541;-82
2022/10/24 00:14:37;;;;;;;10.00;2.93;;;15.70;99.90;;;;;;5060154;28;20445;-80
2022/10/24 00:17:06;;;;;;;5.20;2.40;;;15.70;99.90;;;;;;5066807;28;20492;-82
2022/10/24 00:19:34;;;;;;;4.40;2.60;;;15.70;99.90;;;;;;5078007;28;20460;-83
2022/10/24 00:22:01;;;;;;;5.53;3.03;;;15.70;99.90;;;;;;5077461;28;20477;-83
2022/10/24 00:24:28;;;;;;;3.00;2.70;;;15.70;99.90;;;;;;5076480;28;20483;-84
2022/10/24 00:26:55;;;;;;;9.07;2.30;;;15.70;99.90;;;;;;5077828;28;20452;-83
2022/10/24 00:29:22;;;;;;;6.77;2.67;;;15.70;99.90;;;;;;5078035;28;20201;-84
2022/10/24 00:31:49;;;;;;;5.40;2.47;;;15.80;99.90;;;;;;5077910;28;21406;-84
2022/10/24 00:34:16;;;;;;;7.07;2.73;;;15.70;99.90;;;;;;5067870;28;20442;-83
2022/10/24 00:36:44;;;;;;;3.80;2.33;;;15.70;99.90;;;;;;5078120;28;20485;-84
2022/10/24 00:39:12;;;;;;;6.90;3.05;;;15.80;99.90;;;;;;5078247;28;20507;-84
2022/10/24 00:41:41;;;;;;;5.30;2.93;;;15.70;99.90;;;;;;5077964;28;20218;-84
2022/10/24 00:44:17;;;;;;;4.10;2.83;;;15.60;99.90;;;;;;5078186;28;20439;-83
2022/10/24 00:46:46;;;;;;;5.07;3.17;;;15.70;99.90;;;;;;5078259;28;20434;-84
2022/10/24 00:49:16;;;;;;;4.53;2.80;;;15.60;99.90;;;;;;5078136;28;20461;-83
2022/10/24 00:51:46;;;;;;;6.03;2.50;;;15.70;99.90;;;;;;5061240;28;20506;-81
2022/10/24 00:54:14;;;;;;;5.20;2.67;;;15.60;99.90;;;;;;5067450;28;20445;-83
2022/10/24 00:56:44;;;;;;;2.58;2.38;;;15.60;99.90;;;;;;5058316;28;20509;-81
2022/10/24 00:59:14;;;;;;;3.60;2.23;;;15.60;99.90;;;;;;5070581;28;20214;-80
2022/10/24 01:01:43;;;;;;;4.20;3.80;;;15.60;99.90;;;;;;5070023;28;20465;-82
2022/10/24 01:04:12;;;;;;;4.78;3.10;;;15.60;99.90;;;;;;5068262;28;20476;-80
2022/10/24 01:06:47;;;;;;;4.10;2.70;;;15.60;99.90;;;;;;5069673;28;20260;-83
2022/10/24 01:09:29;;;;;;;9.63;3.03;;;15.70;99.90;;;;;;5072304;28;20535;-83
2022/10/24 01:12:04;;;;;;;3.90;2.43;;;15.70;99.90;;;;;;5073547;28;20525;-82
2022/10/24 01:14:45;;;;;;;6.80;2.60;;;15.70;99.90;;;;;;5070994;28;20440;-82
2022/10/24 01:17:17;;;;;;;5.60;2.57;;;15.70;99.90;;;;;;5064993;28;20754;-82
2022/10/24 01:20:14;;;;;;;3.27;2.20;;;15.70;99.90;;;;;;5063898;28;20525;-81
2022/10/24 01:22:54;;;;;;;3.37;2.23;;;15.70;99.90;;;;;;5065722;28;20475;-79
2022/10/24 01:25:31;;;;;;;7.50;2.77;;;15.60;99.90;;;;;;5054352;28;20891;-82
2022/10/24 01:28:04;;;;;;;6.65;2.80;;;15.50;99.90;;;;;;5056490;28;20445;-79
2022/10/24 01:30:39;;;;;;;3.22;2.35;;;15.50;99.90;;;;;;5059983;28;20208;-79
2022/10/24 01:33:15;;;;;;;7.93;3.50;;;15.50;99.90;;;;;;5063142;28;20225;-80
2022/10/24 01:35:47;;;;;;;9.63;2.70;;;15.50;99.90;;;;;;5057510;28;20437;-82
2022/10/24 01:38:21;;;;;;;7.50;2.75;;;15.50;99.90;;;;;;5066818;28;20511;-83
2022/10/24 01:40:53;;;;;;;4.95;2.70;;;15.50;99.90;;;;;;5065302;28;20220;-84
2022/10/24 01:43:25;;;;;;;5.00;2.80;;;15.50;99.90;;;;;;5076751;28;20437;-84
2022/10/24 01:45:58;;;;;;;2.87;2.33;;;15.50;99.90;;;;;;5076401;28;20442;-82
2022/10/24 01:48:28;;;;;;;4.25;2.65;;;15.40;99.90;;;;;;5077431;28;20464;-83
2022/10/24 01:50:57;;;;;;;4.10;2.90;;;15.50;99.90;;;;;;5076391;28;20213;-83
2022/10/24 01:53:27;;;;;;;2.77;2.30;;;15.40;99.90;;;;;;5073193;28;20198;-83
2022/10/24 01:55:54;;;;;;;7.32;3.92;;;15.40;99.90;;;;;;5076348;28;20437;-84
2022/10/24 01:58:21;;;;;;;4.28;2.92;;;15.40;99.90;;;;;;5067319;28;20210;-83
2022/10/24 02:00:50;;;;;;;4.88;2.55;;;15.40;99.90;;;;;;5071225;28;20219;-82
2022/10/24 02:03:24;;;;;;;6.40;2.47;;;15.30;99.90;;;;;;5069546;28;20269;-84
2022/10/24 02:05:55;;;;;;;12.38;2.88;;;15.40;99.90;;;;;;5071052;28;20440;-82
2022/10/24 02:08:27;;;;;;;7.88;2.95;;;15.40;99.90;;;;;;5058367;28;20270;-80
2022/10/24 02:10:57;;;;;;;4.30;3.00;;;15.40;99.90;;;;;;5062761;28;20201;-81
2022/10/24 02:13:29;;;;;;;3.65;2.25;;;15.30;99.90;;;;;;5065995;28;20310;-83
2022/10/24 02:16:00;;;;;;;8.00;2.90;;;15.30;99.90;;;;;;5067204;28;20657;-83
2022/10/24 02:18:30;;;;;;;4.25;2.35;;;15.50;99.90;;;;;;5068851;28;20214;-82
2022/10/24 02:21:05;;;;;;;4.95;2.38;;;15.40;99.90;;;;;;5058395;28;20269;-81
2022/10/24 02:23:37;;;;;;;5.63;2.78;;;15.50;99.90;;;;;;5064845;28;20506;-80
2022/10/24 02:26:07;;;;;;;5.47;2.93;;;15.40;99.90;;;;;;5068763;28;20313;-80
2022/10/24 02:28:40;;;;;;;2.57;2.37;;;15.40;99.90;;;;;;5070637;28;20472;-82
2022/10/24 02:31:11;;;;;;;3.20;2.33;;;15.40;99.90;;;;;;5067720;28;20943;-84
2022/10/24 02:33:40;;;;;;;4.43;2.33;;;15.40;99.90;;;;;;5066478;28;20289;-84
2022/10/24 02:36:10;;;;;;;5.88;2.80;;;15.40;99.90;;;;;;5053637;28;20230;-83
2022/10/24 02:38:40;;;;;;;3.83;2.90;;;15.40;99.90;;;;;;5058367;28;20273;-83
2022/10/24 02:41:12;;;;;;;5.38;2.38;;;15.30;99.90;;;;;;5058467;28;20241;-81
2022/10/24 02:43:40;;;;;;;7.43;2.60;;;15.30;99.90;;;;;;5066200;28;20250;-83
2022/10/24 02:46:09;;;;;;;6.30;2.55;;;15.30;99.90;;;;;;5059955;28;20211;-82
2022/10/24 02:48:41;;;;;;;5.50;2.40;;;15.30;99.90;;;;;;5061828;28;20289;-83
2022/10/24 02:51:09;;;;;;;8.30;2.78;;;15.40;99.90;;;;;;5069080;28;20206;-83
2022/10/24 02:53:37;;;;;;;9.02;3.35;;;15.30;99.90;;;;;;5063211;28;20224;-80
2022/10/24 02:56:04;;;;;;;5.15;2.70;;;15.30;99.90;;;;;;5070507;28;20296;-81
2022/10/24 02:58:31;;;;;;;6.93;3.05;;;15.30;99.90;;;;;;5069586;28;20225;-81
2022/10/24 03:00:58;;;;;;;4.68;2.75;;;15.20;99.90;;;;;;5064193;28;20268;-83
2022/10/24 03:03:24;;;;;;;5.47;2.97;;;15.20;99.90;;;;;;5063677;28;20239;-83
2022/10/24 03:05:53;;;;;;;8.15;2.70;;;15.10;99.90;;;;;;5062955;28;20229;-82
2022/10/24 03:08:19;;;;;;;4.30;2.65;;;14.90;99.90;;;;;;5050636;28;20260;-81
2022/10/24 03:10:47;;;;;;;3.85;2.38;;;15.00;99.90;;;;;;5059204;28;20199;-81
2022/10/24 03:13:13;;;;;;;4.55;3.30;;;14.90;99.90;;;;;;5068995;28;20220;-81
2022/10/24 03:15:40;;;;;;;7.13;3.22;;;14.80;99.90;;;;;;5065221;28;20216;-83
2022/10/24 03:18:07;;;;;;;6.32;2.90;;;14.80;99.90;;;;;;5065668;28;20321;-82
2022/10/24 03:20:34;;;;;;;8.93;3.10;;;14.70;99.90;;;;;;5062024;28;20223;-84
2022/10/24 03:23:03;;;;;;;6.30;3.17;;;14.70;99.90;;;;;;5065027;28;20290;-82
2022/10/24 03:25:29;;;;;;;4.77;3.57;;;14.70;99.90;;;;;;5064523;28;20207;-81
2022/10/24 03:27:56;;;;;;;6.70;3.40;;;14.60;99.90;;;;;;5063656;28;20483;-82
2022/10/24 03:30:23;;;;;;;6.97;3.13;;;14.70;99.90;;;;;;5063674;28;20735;-82
2022/10/24 03:32:50;;;;;;;8.43;3.10;;;14.70;99.90;;;;;;5063752;28;20537;-80
2022/10/24 03:35:17;;;;;;;8.98;4.00;;;14.60;99.90;;;;;;5064868;28;20269;-84
2022/10/24 03:37:44;;;;;;;6.75;3.30;;;14.60;99.90;;;;;;5065917;28;20251;-81
2022/10/24 03:40:13;;;;;;;7.68;3.42;;;14.50;99.90;;;;;;5061508;28;20241;-82
2022/10/24 03:42:40;;;;;;;8.65;3.75;;;14.70;99.90;;;;;;5065301;28;20595;-82
2022/10/24 03:45:07;;;;;;;6.35;3.25;;;14.60;99.90;;;;;;5064567;28;20276;-82
2022/10/24 03:47:34;;;;;;;7.57;3.20;;;14.50;99.90;;;;;;5066566;28;20200;-83
2022/10/24 03:50:02;;;;;;;6.43;3.92;;;14.60;99.90;;;;;;5065886;28;20319;-81
2022/10/24 03:52:28;;;;;;;6.97;3.08;;;14.60;99.90;;;;;;5069241;28;20222;-80
2022/10/24 03:54:55;;;;;;;4.38;3.28;;;14.60;99.90;;;;;;5070290;28;20371;-83
2022/10/24 03:57:23;;;;;;;7.40;3.00;;;14.60;99.90;;;;;;5065253;28;20233;-81
2022/10/24 03:59:50;;;;;;;7.95;3.63;;;14.70;99.90;;;;;;5063405;28;20227;-82
2022/10/24 04:02:17;;;;;;;7.50;3.08;;;14.60;99.90;;;;;;5063034;28;20280;-85
2022/10/24 04:04:44;;;;;;;10.75;5.40;;;14.60;99.90;;;;;;5060573;28;20209;-83
2022/10/24 04:07:11;;;;;;;10.07;4.03;;;14.60;99.90;;;;;;5078583;28;20189;-82
2022/10/24 04:09:38;;;;;;;8.82;3.20;;;14.60;99.90;;;;;;5078452;28;20181;-81
2022/10/24 04:12:05;;;;;;;8.40;3.65;;;14.60;99.90;;;;;;5077944;28;20231;-82
2022/10/24 04:14:34;;;;;;;8.43;4.43;;;14.70;99.90;;;;;;5076225;28;20208;-82
2022/10/24 04:17:01;;;;;;;6.10;3.47;;;14.60;99.90;;;;;;5077222;28;20179;-82
2022/10/24 04:19:28;;;;;;;6.38;3.10;;;14.60;99.90;;;;;;5076864;28;20242;-83
2022/10/24 04:21:55;;;;;;;12.38;3.85;;;14.60;99.90;;;;;;5077828;28;20279;-81
2022/10/24 04:24:21;;;;;;;6.10;3.60;;;14.70;99.90;;;;;;5077413;28;20211;-81
2022/10/24 04:26:48;;;;;;;4.85;3.20;;;14.70;99.90;;;;;;5072771;28;20205;-80
2022/10/24 04:29:15;;;;;;;13.77;3.50;;;14.70;99.90;;;;;;5069606;28;20208;-81
2022/10/24 04:31:44;;;;;;;7.07;3.40;;;14.70;99.90;;;;;;5066785;28;20516;-80
2022/10/24 04:34:11;;;;;;;5.43;3.60;;;14.80;99.90;;;;;;5066909;28;20204;-84
2022/10/24 04:36:38;;;;;;;6.32;3.17;;;14.70;99.90;;;;;;5065981;28;20270;-84
2022/10/24 04:39:05;;;;;;;6.00;3.30;;;14.80;99.90;;;;;;5066841;28;20230;-84
2022/10/24 04:41:32;;;;;;;10.10;3.60;;;14.70;99.90;;;;;;5068105;28;20555;-81
2022/10/24 04:43:59;;;;;;;4.70;3.15;;;14.70;99.90;;;;;;5058769;28;20291;-82
2022/10/24 04:46:26;;;;;;;3.28;2.97;;;14.70;99.90;;;;;;5068663;28;20213;-81
2022/10/24 04:48:54;;;;;;;9.50;4.13;;;14.70;99.90;;;;;;5076101;28;20230;-82
2022/10/24 04:51:21;;;;;;;5.30;3.50;;;14.70;99.90;;;;;;5072558;28;20218;-81
2022/10/24 04:53:48;;;;;;;11.25;3.80;;;14.80;99.90;;;;;;5073804;28;20226;-82
2022/10/24 04:56:15;;;;;;;4.22;2.60;;;14.70;99.90;;;;;;5072300;28;20242;-80
2022/10/24 04:58:42;;;;;;;8.43;3.58;;;14.70;99.90;;;;;;5072682;28;20238;-80
2022/10/24 05:01:09;;;;;;;4.72;3.30;;;14.70;99.90;;;;;;5074333;28;20353;-81
2022/10/24 05:03:36;;;;;;;13.77;4.80;;;14.70;99.90;;;;;;5067797;28;20197;-85
2022/10/24 05:06:04;;;;;;;10.70;3.30;;;14.70;99.90;;;;;;5069411;28;20239;-82
2022/10/24 05:08:31;;;;;;;6.03;4.13;;;14.70;99.90;;;;;;5071073;28;20191;-85
2022/10/24 05:10:58;;;;;;;6.90;3.50;;;14.70;99.90;;;;;;5073506;28;20208;-83
2022/10/24 05:13:25;;;;;;;4.15;3.28;;;14.70;99.90;;;;;;5075772;28;20451;-84
2022/10/24 05:15:52;;;;;;;9.73;4.03;;;14.70;99.90;;;;;;5073764;28;20205;-84
2022/10/24 05:18:19;;;;;;;5.20;3.45;;;14.70;99.90;;;;;;5072624;28;20222;-84
2022/10/24 05:20:48;;;;;;;5.95;3.58;;;14.70;99.90;;;;;;5072384;28;20188;-82
2022/10/24 05:23:17;;;;;;;8.15;3.85;;;14.70;99.90;;;;;;5072157;28;20219;-86
2022/10/24 05:25:44;;;;;;;7.38;3.60;;;14.70;99.90;;;;;;5070916;28;20210;-82
2022/10/24 05:28:11;;;;;;;10.82;4.82;;;14.80;99.90;;;;;;5066898;28;20281;-83
2022/10/24 05:30:37;;;;;;;7.28;4.28;;;14.60;99.90;;;;;;5067084;28;20249;-83
2022/10/24 05:33:04;;;;;;;5.90;3.63;;;14.50;99.90;;;;;;5069643;28;20255;-84
2022/10/24 05:35:31;;;;;;;11.65;4.05;;;14.50;99.90;;;;;;5063301;28;20232;-81
2022/10/24 05:37:58;;;;;;;11.85;5.22;;;14.40;99.90;;;;;;5064795;28;20258;-82
2022/10/24 05:40:26;;;;;;;4.15;3.75;;;14.40;99.90;;;;;;5052363;28;20265;-81
2022/10/24 05:42:53;;;;;;;6.63;4.20;;;14.30;99.90;;;;;;5065640;28;20292;-82
2022/10/24 05:45:20;;;;;;;10.70;4.22;;;14.30;99.90;;;;;;5065610;28;20223;-82
2022/10/24 05:47:47;;;;;;;8.68;4.10;;;14.40;99.90;;;;;;5065186;28;20263;-82
2022/10/24 05:50:15;;;;;;;8.65;4.25;;;14.30;99.90;;;;;;5060009;28;20214;-82
2022/10/24 05:52:42;;;;;;;5.85;3.80;;;14.30;99.90;;;;;;5064564;28;20287;-79
2022/10/24 05:55:10;;;;;;;7.85;3.45;;;14.30;99.90;;;;;;5061072;28;20216;-82
2022/10/24 05:57:40;;;;;;;6.18;3.92;;;14.30;99.90;;;;;;5060642;28;20294;-81
2022/10/24 06:00:11;;;;;;;7.65;3.47;;;14.30;99.90;;;;;;5065922;28;20199;-82
2022/10/24 06:02:38;;;;;;;7.65;3.95;;;14.30;99.90;;;;;;5058328;28;20235;-81
2022/10/24 06:05:05;;;;;;;7.38;4.15;;;14.30;99.90;;;;;;5065921;28;20205;-83
2022/10/24 06:07:34;;;;;;;8.15;4.03;;;14.40;99.90;;;;;;5062044;28;20651;-81
2022/10/24 06:10:02;;;;;;;7.60;4.20;;;14.40;99.90;;;;;;5060614;28;20230;-82
2022/10/24 06:12:29;;;;;;;6.93;5.13;;;14.50;99.90;;;;;;5069009;28;20219;-82
2022/10/24 06:14:58;;;;;;;7.05;4.30;;;14.50;99.90;;;;;;5062918;28;20206;-80
2022/10/24 06:17:26;;;;;;;8.02;4.50;;;14.50;99.90;;;;;;5068935;28;20227;-83
2022/10/24 06:19:53;;;;;;;6.78;3.50;;;14.50;99.90;;;;;;5067168;28;20225;-80
2022/10/24 06:22:22;;;;;;;10.80;3.60;;;14.50;99.90;;;;;;5066247;28;20231;-83
2022/10/24 06:24:49;;;;;;;6.57;3.85;;;14.50;99.90;;;;;;5064838;28;20204;-81
2022/10/24 06:27:16;;;;;;;11.13;4.50;;;14.60;99.90;;;;;;5073325;28;20211;-80
2022/10/24 06:29:43;;;;;;;12.00;4.90;;;14.50;99.90;;;;;;5074329;28;20237;-81
2022/10/24 06:32:12;;;;;;;8.90;4.07;;;14.60;99.90;;;;;;5071963;28;20234;-78
2022/10/24 06:34:39;;;;;;;8.82;3.20;;;14.60;99.90;;;;;;5070067;28;20204;-79
2022/10/24 06:37:06;;;;;;;12.93;3.15;;;14.70;99.90;;;;;;5069167;28;20224;-82
2022/10/24 06:39:33;;;;;;;8.73;4.03;;;14.70;99.90;;;;;;5074003;28;20303;-79
2022/10/24 06:42:01;;;;;;;6.82;4.45;;;14.70;99.90;;;;;;5069688;28;20237;-81
2022/10/24 06:44:28;;;;;;;5.55;3.72;;;14.70;99.90;;;;;;5072797;28;20210;-78
2022/10/24 06:46:55;;;;;;;5.47;4.10;;;14.80;99.90;;;;;;5065988;28;20223;-79
2022/10/24 06:49:23;;;;;;;18.83;5.15;;;14.90;99.90;;;;;;5073961;28;20236;-83
2022/10/24 06:51:50;;;;;;;8.73;4.00;;;14.90;99.90;;;;;;5074873;28;20240;-81
2022/10/24 06:54:17;;;;;;;7.90;3.70;;;14.90;99.90;;;;;;5071412;28;20474;-79
2022/10/24 06:56:44;;;;;;;9.60;3.78;;;15.00;99.90;;;;;;5073658;28;20221;-80
2022/10/24 06:59:12;;;;;;;6.45;3.42;;;15.20;99.90;;;;;;5076103;28;20285;-83
2022/10/24 07:01:39;;;;;;;9.43;3.47;;;15.30;99.90;;;;;;5074995;28;20232;-83
2022/10/24 07:04:06;;;;;;;9.57;3.30;;;15.50;99.90;;;;;;5074027;28;20230;-79
2022/10/24 07:06:34;;;;;;;9.13;3.77;;;15.70;99.90;;;;;;5074737;28;20194;-81
2022/10/24 07:09:08;;;;;;;7.07;3.73;;;15.90;99.90;;;;;;5074550;28;20461;-81
2022/10/24 07:11:35;;;;;;;8.17;3.00;;;16.20;99.90;;;;;;5074173;28;20472;-83
2022/10/24 07:14:02;;;;;;;7.87;3.03;;;16.30;99.90;;;;;;5075042;28;20880;-79
2022/10/24 07:16:29;;;;;;;9.50;3.10;;;16.60;99.90;;;;;;5075181;28;20434;-81
2022/10/24 07:18:56;;;;;;;7.83;3.50;;;16.70;99.90;;;;;;5075012;28;20481;-80
2022/10/24 07:21:25;;;;;;;6.20;2.97;;;16.80;99.90;;;;;;5074079;28;20433;-82
2022/10/24 07:23:55;;;;;;;11.60;3.20;;;17.10;99.90;;;;;;5074123;28;20469;-80
2022/10/24 07:26:23;;;;;;;13.23;3.57;;;17.90;99.90;;;;;;5074621;28;20460;-79
2022/10/24 07:28:54;;;;;;;14.40;3.13;;;18.30;99.90;;;;;;5072770;28;20470;-79
2022/10/24 07:31:23;;;;;;;4.70;2.67;;;19.00;99.90;;;;;;5063622;28;20911;-82
2022/10/24 07:33:51;;;;;;;5.30;2.97;;;19.70;99.90;;;;;;5074091;28;20530;-81
2022/10/24 07:36:19;;;;;;;8.40;2.77;;;20.20;99.90;;;;;;5072421;28;20463;-81
2022/10/24 07:38:46;;;;;;;9.70;2.93;;;21.10;99.90;;;;;;5070941;28;20543;-83
2022/10/24 07:41:15;;;;;;;6.93;2.70;;;21.90;99.90;;;;;;5069822;28;20454;-82
2022/10/24 07:43:42;;;;;;;8.40;2.70;;;22.50;99.90;;;;;;5070525;28;20438;-80
2022/10/24 07:46:10;;;;;;;5.53;2.83;;;22.90;99.90;;;;;;5067078;28;20484;-84
2022/10/24 07:48:38;;;;;;;5.07;2.77;;;23.00;99.90;;;;;;5045372;28;20526;-82
2022/10/24 07:51:06;;;;;;;11.80;3.13;;;23.50;98.30;;;;;;5058720;28;20450;-82
2022/10/24 07:53:34;;;;;;;12.07;4.90;;;23.30;97.70;;;;;;5064660;28;20446;-83
2022/10/24 07:56:01;;;;;;;4.63;2.33;;;23.20;97.80;;;;;;5063843;28;20465;-81
2022/10/24 07:58:30;;;;;;;5.53;2.67;;;22.80;98.00;;;;;;5062954;28;20529;-82
2022/10/24 08:01:03;;;;;;;5.20;2.40;;;23.00;97.70;;;;;;5052291;28;20533;-81
2022/10/24 08:03:30;;;;;;;5.20;2.00;;;23.10;97.80;;;;;;5049011;28;20465;-80
2022/10/24 08:05:57;;;;;;;6.37;3.23;;;23.50;97.40;;;;;;5064164;28;20474;-80
2022/10/24 08:08:24;;;;;;;6.37;2.87;;;23.30;96.60;;;;;;5061788;28;20517;-83
2022/10/24 08:10:51;;;;;;;6.90;2.87;;;22.90;97.30;;;;;;5063759;28;20450;-83
2022/10/24 08:13:19;;;;;;;5.77;2.80;;;22.40;98.20;;;;;;5063991;28;20470;-84
2022/10/24 08:15:47;;;;;;;7.00;2.73;;;22.30;99.20;;;;;;5053950;28;20466;-82
2022/10/24 08:18:14;;;;;;;8.87;2.70;;;23.00;98.30;;;;;;5065515;28;20461;-81
2022/10/24 08:20:41;;;;;;;4.87;2.17;;;22.90;96.90;;;;;;5069894;28;20572;-85
2022/10/24 08:23:08;;;;;;;5.87;2.57;;;22.40;97.90;;;;;;5078223;28;20485;-86
2022/10/24 08:25:39;;;;;;;9.47;2.30;;;21.80;99.10;;;;;;5077161;28;20495;-87
2022/10/24 08:28:05;;;;;;;8.30;2.30;;;21.20;99.90;;;;;;5077395;28;20461;-85
2022/10/24 08:30:32;;;;;;;6.80;3.00;;;21.40;99.90;;;;;;5077966;28;20458;-83
2022/10/24 08:33:00;;;;;;;7.10;2.73;;;22.00;99.90;;;;;;5077881;28;20468;-83
2022/10/24 08:35:27;;;;;;;5.27;2.50;;;22.90;99.00;;;;;;5078184;28;20455;-86
2022/10/24 08:37:54;;;;;;;4.20;2.50;;;23.70;96.20;;;;;;5078009;28;20461;-85
2022/10/24 08:40:21;;;;;;;6.93;2.60;;;24.40;95.00;;;;;;5072164;28;20494;-83
2022/10/24 08:42:49;;;;;;;4.93;2.07;;;24.70;94.40;;;;;;5076268;28;20530;-85
2022/10/24 08:45:22;;;;;;;7.40;3.03;;;25.20;93.70;;;;;;5077972;28;20437;-84
2022/10/24 08:47:57;;;;;;;8.10;2.43;;;25.70;92.50;;;;;;5077887;28;20464;-87
2022/10/24 08:50:51;;;;;;;7.80;3.37;;;26.30;91.40;;;;;;5077315;28;20485;-86
2022/10/24 08:53:22;;;;;;;7.53;3.10;;;26.90;90.60;;;;;;5060476;28;20489;-84
2022/10/24 08:55:52;;;;;;;6.63;2.93;;;27.00;89.00;;;;;;5069949;28;20449;-84
2022/10/24 08:58:24;;;;;;;4.97;2.80;;;27.60;87.70;;;;;;5064052;28;20465;-82
2022/10/24 09:00:54;;;;;;;7.33;3.03;;;27.50;88.10;;;;;;5065112;28;20479;-83
2022/10/24 09:03:26;;;;;;;4.90;2.23;;;27.50;86.10;;;;;;5065070;28;20538;-83
2022/10/24 09:05:59;;;;;;;5.90;2.40;;;27.40;86.60;;;;;;5069540;28;20507;-87
2022/10/24 09:08:33;;;;;;;4.87;1.63;;;27.00;86.70;;;;;;5077982;28;20517;-86
2022/10/24 09:11:02;;;;;;;7.60;2.63;;;27.40;87.10;;;;;;5077899;28;20478;-83
2022/10/24 09:13:30;;;;;;;3.10;1.80;;;27.60;86.60;;;;;;5063718;28;20459;-86
2022/10/24 09:15:57;;;;;;;11.03;2.63;;;27.50;86.40;;;;;;5077731;28;20433;-87
2022/10/24 09:18:29;;;;;;;4.87;2.53;;;27.70;85.70;;;;;;5077337;28;20429;-85
2022/10/24 09:21:00;;;;;;;4.43;2.20;;;27.70;86.10;;;;;;5073207;28;20423;-86
2022/10/24 09:23:27;;;;;;;7.47;2.70;;;28.00;84.60;;;;;;5076977;28;20466;-86
2022/10/24 09:25:58;;;;;;;5.83;2.77;;;27.80;85.20;;;;;;5062403;28;20486;-83
2022/10/24 09:28:25;;;;;;;3.73;1.67;;;27.80;84.20;;;;;;5072465;28;20458;-84
2022/10/24 09:30:52;;;;;;;8.70;2.03;;;27.80;84.30;;;;;;5073848;28;20533;-84
2022/10/24 09:33:27;;;;;;;4.80;2.20;;;27.50;84.80;;;;;;5060163;28;20466;-83
2022/10/24 09:35:58;;;;;;;7.27;2.07;;;26.40;85.40;;;;;;5072627;28;20476;-80
2022/10/24 09:38:29;;;;;;;7.63;2.30;;;25.00;89.80;;;;;;5058229;28;20462;-82
2022/10/24 09:40:59;;;;;;;4.73;2.30;;;24.50;90.80;;;;;;5059794;28;20448;-83
2022/10/24 09:43:33;;;;;;;6.07;2.03;;;24.20;91.10;;;;;;5072457;28;20492;-83
2022/10/24 09:46:05;;;;;;;5.87;1.80;;;24.00;91.80;;;;;;5072541;28;20434;-80
2022/10/24 09:48:48;;;;;;;6.57;2.20;;;23.20;92.70;;;;;;5073394;28;20450;-80
2022/10/24 09:51:24;;;;;;;15.20;2.27;;;22.60;94.10;;;;;;5068437;28;20465;-81
2022/10/24 09:54:01;;;;;;;10.63;2.10;;;22.50;94.70;;;;;;5072383;28;20477;-86
2022/10/24 09:56:40;;;;;;;6.13;2.20;;;22.20;95.90;;;;;;5071524;28;20442;-80
2022/10/24 09:59:41;;;;;;;5.97;1.90;;;22.20;95.60;;;;;;5048085;28;20792;-79
2022/10/24 10:02:22;;;;;;;7.33;3.23;;;22.40;95.60;;;;;;5057960;28;20499;-82
2022/10/24 10:05:08;;;;;;;4.47;1.83;;;21.80;95.90;;;;;;5071074;28;20520;-82
2022/10/24 10:07:39;;;;;;;13.53;7.80;;;21.40;96.70;;;;;;5053087;28;20442;-82
2022/10/24 10:10:22;;;;;;;5.07;1.90;;;21.20;97.20;;;;;;5064640;28;20461;-82
2022/10/24 10:12:57;;;;;;;12.17;2.33;;;20.90;98.40;;;;;;5054077;28;20485;-79
2022/10/24 10:15:29;;;;;;;6.80;2.13;;;20.90;98.70;;;;;;5077398;28;20445;-81
2022/10/24 10:17:59;;;;;;;2.57;1.73;;;21.10;98.90;;;;;;5065280;28;20472;-81
2022/10/24 10:20:30;;;;;;;3.80;1.47;;;20.70;98.70;;;;;;5065406;28;20514;-83
2022/10/24 10:23:16;;;;;;;3.67;1.50;;;20.40;98.90;;;;;;5064561;28;20494;-79
2022/10/24 10:25:43;;;;;;;4.17;1.70;;;19.90;99.90;;;;;;5063959;28;20449;-82
2022/10/24 10:28:21;;;;;;;7.63;1.50;;;19.70;99.90;;;;;;5067995;28;20466;-83
2022/10/24 10:30:51;;;;;;;3.33;1.80;;;19.70;99.90;;;;;;5072826;28;20473;-82
2022/10/24 10:33:26;;;;;;;5.50;2.20;;;19.70;99.90;;;;;;5067361;28;20481;-82
2022/10/24 10:36:03;;;;;;;7.20;2.23;;;19.70;99.90;;;;;;5057929;28;20450;-81
2022/10/24 10:39:00;;;;;;;11.27;2.47;;;19.50;99.90;;;;;;5068670;28;20430;-80
2022/10/24 10:41:37;;;;;;;3.70;1.33;;;19.40;99.90;;;;;;5068885;28;20485;-81
2022/10/24 10:44:23;;;;;;;7.97;2.83;;;19.20;99.90;;;;;;5067897;28;20480;-81
2022/10/24 10:46:59;;;;;;;4.33;1.60;;;19.30;99.90;;;;;;5066832;28;20486;-80
2022/10/24 10:49:31;;;;;;;7.00;1.60;;;19.20;99.90;;;;;;5068673;28;20444;-83
2022/10/24 10:52:02;;;;;;;3.77;1.67;;;19.10;99.90;;;;;;5068116;28;20844;-83
2022/10/24 10:55:07;;;;;;;3.93;1.73;;;19.00;99.90;;;;;;5069159;28;20443;-83
2022/10/24 10:57:42;;;;;;;5.50;1.60;;;19.00;99.90;;;;;;5065100;28;20540;-82
2022/10/24 11:00:13;;;;;;;7.57;2.00;;;19.10;99.90;;;;;;5067012;28;20502;-84
2022/10/24 11:03:09;;;;;;;4.00;1.70;;;19.40;99.90;;;;;;5070602;28;20495;-81
2022/10/24 11:05:46;;;;;;;4.60;1.63;;;19.90;99.90;;;;;;5071375;28;20442;-80
2022/10/24 11:08:31;;;;;;;9.13;2.43;;;19.60;99.90;;;;;;5073578;28;20453;-83
2022/10/24 11:11:05;;;;;;;5.10;2.90;;;19.50;99.90;;;;;;5054516;28;20476;-84
2022/10/24 11:13:38;;;;;;;5.77;1.70;;;19.30;99.90;;;;;;5055829;28;20520;-80
2022/10/24 11:16:11;;;;;;;3.87;2.17;;;19.20;99.90;;;;;;5073535;28;20450;-80
2022/10/24 11:18:42;;;;;;;3.87;1.67;;;19.30;99.90;;;;;;5068223;28;20896;-83
2022/10/24 11:21:11;;;;;;;3.67;1.40;;;19.00;99.90;;;;;;5072977;28;20446;-83
2022/10/24 11:23:44;;;;;;;2.33;1.77;;;18.90;99.90;;;;;;5071905;28;20434;-80
2022/10/24 11:26:19;;;;;;;7.30;2.00;;;18.70;99.90;;;;;;5072020;28;20456;-80
2022/10/24 11:28:53;;;;;;;4.70;1.83;;;18.60;99.90;;;;;;5053378;28;20435;-80
2022/10/24 11:31:23;;;;;;;5.70;1.60;;;18.60;99.90;;;;;;5067829;28;20476;-84
2022/10/24 11:33:56;;;;;;;7.90;1.77;;;18.50;99.90;;;;;;5076198;28;20464;-82
2022/10/24 11:36:31;;;;;;;3.00;1.43;;;18.50;99.90;;;;;;5070343;28;20447;-81
2022/10/24 11:39:03;;;;;;;5.43;1.80;;;18.50;99.90;;;;;;5068616;28;20472;-83
2022/10/24 11:41:41;;;;;;;3.57;1.27;;;18.50;99.90;;;;;;5063311;28;20489;-83
2022/10/24 11:44:20;;;;;;;5.93;2.13;;;18.60;99.90;;;;;;5066300;28;20451;-84
2022/10/24 11:46:55;;;;;;;5.33;1.57;;;18.80;99.90;;;;;;5076343;28;20435;-81
2022/10/24 11:49:29;;;;;;;8.50;1.67;;;19.30;99.90;;;;;;5059907;28;20458;-83
2022/10/24 11:52:01;;;;;;;8.30;2.27;;;19.50;99.90;;;;;;5065241;28;20481;-82
2022/10/24 11:54:34;;;;;;;5.10;1.83;;;19.20;99.90;;;;;;5066333;28;20476;-80
2022/10/24 11:57:08;;;;;;;4.37;2.10;;;19.00;99.90;;;;;;5065580;28;20936;-83
2022/10/24 11:59:35;;;;;;;6.60;1.80;;;19.00;99.90;;;;;;5063940;28;20474;-82
2022/10/24 12:02:32;;;;;;;8.53;2.17;;;19.10;99.90;;;;;;5065662;28;20530;-82
2022/10/24 12:05:16;;;;;;;7.63;1.63;;;19.00;99.90;;;;;;5064054;28;20496;-81
2022/10/24 12:08:10;;;;;;;3.47;1.60;;;19.00;99.90;;;;;;5059958;28;20456;-83
2022/10/24 12:11:02;;;;;;;7.60;2.00;;;19.10;99.90;;;;;;5060409;28;20506;-81
2022/10/24 12:13:51;;;;;;;8.70;2.23;;;19.10;99.90;;;;;;5063596;28;20470;-82
2022/10/24 12:16:31;;;;;;;6.43;1.70;;;18.80;99.90;;;;;;5067774;28;20462;-81
2022/10/24 12:19:00;;;;;;;5.40;2.30;;;18.70;99.90;;;;;;5075336;28;20450;-84
2022/10/24 12:21:34;;;;;;;9.40;1.90;;;18.60;99.90;;;;;;5058936;28;20470;-85
2022/10/24 12:24:02;;;;;;;2.47;1.23;;;18.50;99.90;;;;;;5072716;28;20471;-83
2022/10/24 12:26:31;;;;;;;7.30;2.43;;;18.40;99.90;;;;;;5073129;28;20435;-83
2022/10/24 12:29:02;;;;;;;4.67;1.80;;;18.30;99.90;;;;;;5073604;28;20469;-80
2022/10/24 12:31:31;;;;;;;5.90;2.03;;;18.30;99.90;;;;;;5071940;28;20501;-79
2022/10/24 12:34:47;;;;;;;6.60;2.40;;;18.30;99.90;;;;;;5057921;28;20473;-82
2022/10/24 12:37:33;;;;;;;11.67;3.93;;;18.30;99.90;;;;;;4983894;28;20469;-82
2022/10/24 12:40:20;;;;;;;5.63;2.20;;;18.40;99.90;;;;;;5045200;28;20504;-83
2022/10/24 12:43:14;;;;;;;15.03;2.43;;;18.40;99.90;;;;;;5064454;28;20540;-85
2022/10/24 12:45:42;;;;;;;7.90;3.20;;;18.40;99.90;;;;;;5066849;28;20469;-83
2022/10/24 12:48:29;;;;;;;13.90;6.83;;;18.40;99.90;;;;;;5058716;28;20471;-82
2022/10/24 12:51:21;;;;;;;12.53;4.30;;;18.30;99.90;;;;;;5055767;28;21057;-84
2022/10/24 12:54:15;;;;;;;14.60;5.57;;;18.30;99.90;;;;;;5059281;28;20523;-85
2022/10/24 12:57:20;;;;;;;5.57;1.93;;;18.40;99.90;;;;;;5061246;28;20477;-85
2022/10/24 12:59:49;;;;;;;9.47;2.00;;;18.40;99.90;;;;;;5065398;28;20513;-82
2022/10/24 13:02:51;;;;;;;13.43;4.30;;;18.40;99.90;;;;;;5065613;28;20493;-80
2022/10/24 13:05:42;;;;;;;5.03;2.60;;;18.50;99.90;;;;;;5063908;28;20488;-81
2022/10/24 13:08:23;;;;;;;2.93;1.60;;;18.50;99.90;;;;;;5064106;28;20543;-84